Vonore, TN

10:56 AM EDT on October 01, 2014 (GMT -0400)
Wellsville | Change Station
CLOSE
Current Station
Personal Weather Station
Location: Maryville, TN
Elevation: 1106 ft
Nearby Weather Stations

Elev 1106 ft 35.60 °N, 84.08 °W | Updated 4 seconds ago

Mostly Cloudy
Mostly Cloudy
75.0 °F
Feels Like 77 °F
N
3.8
Wind Variable Wind from SE
Gusts 6.9 mph

Today
High -- | Low -- °F
--% Chance of Precip.
Yesterday
High -- | Low -- °F
Precip. -- in
7:31 AM 7:20 PM
Waxing Crescent, 48% visible
Pressure 30.01 in
Visibility 6.0 miles
Clouds Few 8000 ft
Scattered Clouds 12000 ft
Mostly Cloudy 25000 ft
Heat Index 77 °F
Dew Point 62 °F
Humidity 65%
Rainfall 0.00 in
Snow Depth Not available.
UV 1 out of 12
Pollen 4.90 out of 12
Air Quality Not available.
Flu Activity Not available.
METAR KTYS 011353Z 00000KT 6SM HZ FEW080 SCT120 BKN250 19/15 A3003 RMK AO2 SLP162 T01890150 $

More Conditions Fewer Conditions

Pressure 30.01 in
Visibility 6.0 miles
Clouds Few 8000 ft
Scattered Clouds 12000 ft
Mostly Cloudy 25000 ft
Heat Index 77 °F
Dew Point 62 °F
Humidity 65%
Rainfall 0.00 in
Snow Depth Not available.
UV 1 out of 12
Pollen 4.90 out of 12
Air Quality Not available.
Flu Activity Not available.
METAR KTYS 011353Z 00000KT 6SM HZ FEW080 SCT120 BKN250 19/15 A3003 RMK AO2 SLP162 T01890150 $

More Conditions Fewer Conditions

10-Day Weather Forecast

Almanac

Astronomy

Oct. 01, 2014 Rise Set
Actual Time 7:31 AM EDT 7:20 PM EDT
Civil Twilight 7:05 AM EDT 7:45 PM EDT
Nautical Twilight 6:36 AM EDT 8:15 PM EDT
Astronomical Twilight 6:06 AM EDT 8:44 PM EDT
Moon 2:22 PM EDT 12:00 AM EDT
Length of Visible Light 12h 39m
Length of Day
11h 48m
Tomorrow will be 2m 13s shorter.
Waxing Crescent, 48% of the Moon is Illuminated
Today
Waxing Crescent
Oct 1
First Quarter
Oct 8
Full
Oct 15
Last Quarter
Oct 23
New

Today's Extremes

State Highs State Lows

Community

WunderPhotos

Upload Photos

1,757,960 photos uploaded!

Nearby

Snow Depth

Station Depth Elevation
No new snow has been reported.

Earthquake Activity

City Distance Mag. Time & Date
No recent earthquake activity has been reported nearby.
Minimum magnitude displayed is 2.5.

Coastal Water Temperatures

Place Temperature
No Stations Reporting

Nearby Weather Stations